sensor_id;sensor_type;location;lat;lon;timestamp;P1;durP1;ratioP1;P2;durP2;ratioP2
16906;SDS011;8570;52.380;4.654;2023-04-25T00:04:43;14.53;;;3.00;;
16906;SDS011;8570;52.380;4.654;2023-04-25T00:09:47;12.13;;;2.67;;
16906;SDS011;8570;52.380;4.654;2023-04-25T00:14:52;13.43;;;3.07;;
16906;SDS011;8570;52.380;4.654;2023-04-25T00:19:54;13.00;;;2.87;;
16906;SDS011;8570;52.380;4.654;2023-04-25T00:24:57;18.27;;;3.23;;
16906;SDS011;8570;52.380;4.654;2023-04-25T00:30:00;13.73;;;2.77;;
16906;SDS011;8570;52.380;4.654;2023-04-25T00:35:02;12.80;;;3.57;;
16906;SDS011;8570;52.380;4.654;2023-04-25T00:40:07;14.57;;;3.40;;
16906;SDS011;8570;52.380;4.654;2023-04-25T00:45:09;15.77;;;3.23;;
16906;SDS011;8570;52.380;4.654;2023-04-25T00:50:14;14.03;;;3.00;;
16906;SDS011;8570;52.380;4.654;2023-04-25T00:55:18;8.83;;;2.17;;
16906;SDS011;8570;52.380;4.654;2023-04-25T01:00:21;11.23;;;2.27;;
16906;SDS011;8570;52.380;4.654;2023-04-25T01:05:23;13.10;;;2.40;;
16906;SDS011;8570;52.380;4.654;2023-04-25T01:10:26;9.87;;;2.33;;
16906;SDS011;8570;52.380;4.654;2023-04-25T01:15:28;12.03;;;2.20;;
16906;SDS011;8570;52.380;4.654;2023-04-25T01:20:31;13.07;;;3.00;;
16906;SDS011;8570;52.380;4.654;2023-04-25T01:25:35;7.73;;;2.33;;
16906;SDS011;8570;52.380;4.654;2023-04-25T01:30:38;8.27;;;2.70;;
16906;SDS011;8570;52.380;4.654;2023-04-25T01:35:41;13.93;;;2.80;;
16906;SDS011;8570;52.380;4.654;2023-04-25T01:40:45;11.50;;;2.20;;
16906;SDS011;8570;52.380;4.654;2023-04-25T01:45:47;14.90;;;2.70;;
16906;SDS011;8570;52.380;4.654;2023-04-25T01:50:51;16.70;;;2.77;;
16906;SDS011;8570;52.380;4.654;2023-04-25T01:55:54;17.43;;;3.17;;
16906;SDS011;8570;52.380;4.654;2023-04-25T02:00:56;15.93;;;2.73;;
16906;SDS011;8570;52.380;4.654;2023-04-25T02:05:58;12.60;;;2.30;;
16906;SDS011;8570;52.380;4.654;2023-04-25T02:11:02;15.37;;;2.67;;
16906;SDS011;8570;52.380;4.654;2023-04-25T02:16:04;11.63;;;2.87;;
16906;SDS011;8570;52.380;4.654;2023-04-25T02:21:06;6.90;;;2.30;;
16906;SDS011;8570;52.380;4.654;2023-04-25T02:26:10;11.93;;;2.50;;
16906;SDS011;8570;52.380;4.654;2023-04-25T02:31:13;10.93;;;2.30;;
16906;SDS011;8570;52.380;4.654;2023-04-25T02:36:17;9.93;;;2.40;;
16906;SDS011;8570;52.380;4.654;2023-04-25T02:41:21;11.87;;;2.27;;
16906;SDS011;8570;52.380;4.654;2023-04-25T02:46:23;6.97;;;2.00;;
16906;SDS011;8570;52.380;4.654;2023-04-25T02:51:25;12.50;;;2.40;;
16906;SDS011;8570;52.380;4.654;2023-04-25T02:56:29;6.13;;;2.10;;
16906;SDS011;8570;52.380;4.654;2023-04-25T03:01:31;13.63;;;2.80;;
16906;SDS011;8570;52.380;4.654;2023-04-25T03:06:33;8.77;;;2.40;;
16906;SDS011;8570;52.380;4.654;2023-04-25T03:11:38;12.70;;;2.53;;
16906;SDS011;8570;52.380;4.654;2023-04-25T03:16:40;9.97;;;2.63;;
16906;SDS011;8570;52.380;4.654;2023-04-25T03:21:42;14.80;;;3.20;;
16906;SDS011;8570;52.380;4.654;2023-04-25T03:26:46;14.73;;;2.60;;
16906;SDS011;8570;52.380;4.654;2023-04-25T03:31:48;9.03;;;2.27;;
16906;SDS011;8570;52.380;4.654;2023-04-25T03:36:50;15.87;;;2.77;;
16906;SDS011;8570;52.380;4.654;2023-04-25T03:41:54;5.07;;;1.80;;
16906;SDS011;8570;52.380;4.654;2023-04-25T03:46:56;5.33;;;1.70;;
16906;SDS011;8570;52.380;4.654;2023-04-25T03:51:58;7.00;;;2.20;;
16906;SDS011;8570;52.380;4.654;2023-04-25T03:57:01;5.67;;;2.00;;
16906;SDS011;8570;52.380;4.654;2023-04-25T04:02:04;9.60;;;2.07;;
16906;SDS011;8570;52.380;4.654;2023-04-25T04:07:06;9.57;;;2.03;;
16906;SDS011;8570;52.380;4.654;2023-04-25T04:12:09;6.03;;;1.87;;
16906;SDS011;8570;52.380;4.654;2023-04-25T04:17:11;9.47;;;2.10;;
16906;SDS011;8570;52.380;4.654;2023-04-25T04:22:13;7.83;;;2.70;;
16906;SDS011;8570;52.380;4.654;2023-04-25T04:27:17;8.73;;;2.20;;
16906;SDS011;8570;52.380;4.654;2023-04-25T04:32:20;8.57;;;2.27;;
16906;SDS011;8570;52.380;4.654;2023-04-25T04:37:23;9.27;;;2.27;;
16906;SDS011;8570;52.380;4.654;2023-04-25T04:42:26;10.13;;;2.50;;
16906;SDS011;8570;52.380;4.654;2023-04-25T04:47:29;15.83;;;2.97;;
16906;SDS011;8570;52.380;4.654;2023-04-25T04:52:31;10.20;;;2.37;;
16906;SDS011;8570;52.380;4.654;2023-04-25T04:57:34;10.87;;;2.43;;
16906;SDS011;8570;52.380;4.654;2023-04-25T05:02:37;13.13;;;2.47;;
16906;SDS011;8570;52.380;4.654;2023-04-25T05:07:39;9.97;;;2.60;;
16906;SDS011;8570;52.380;4.654;2023-04-25T05:12:42;10.47;;;2.67;;
16906;SDS011;8570;52.380;4.654;2023-04-25T05:17:44;15.07;;;2.93;;
16906;SDS011;8570;52.380;4.654;2023-04-25T05:22:46;10.90;;;2.10;;
16906;SDS011;8570;52.380;4.654;2023-04-25T05:27:49;14.17;;;2.40;;
16906;SDS011;8570;52.380;4.654;2023-04-25T05:32:52;15.20;;;3.00;;
16906;SDS011;8570;52.380;4.654;2023-04-25T05:37:54;13.53;;;2.50;;
16906;SDS011;8570;52.380;4.654;2023-04-25T05:42:57;8.63;;;1.80;;
16906;SDS011;8570;52.380;4.654;2023-04-25T05:47:59;11.70;;;2.07;;
16906;SDS011;8570;52.380;4.654;2023-04-25T05:53:01;9.93;;;2.00;;
16906;SDS011;8570;52.380;4.654;2023-04-25T05:58:04;5.23;;;1.77;;
16906;SDS011;8570;52.380;4.654;2023-04-25T06:03:06;6.87;;;1.67;;
16906;SDS011;8570;52.380;4.654;2023-04-25T06:08:09;11.00;;;2.37;;
16906;SDS011;8570;52.380;4.654;2023-04-25T06:13:12;11.57;;;2.63;;
16906;SDS011;8570;52.380;4.654;2023-04-25T06:18:15;16.53;;;2.30;;
16906;SDS011;8570;52.380;4.654;2023-04-25T06:23:17;7.57;;;1.53;;
16906;SDS011;8570;52.380;4.654;2023-04-25T06:28:23;2.83;;;1.23;;
16906;SDS011;8570;52.380;4.654;2023-04-25T06:33:25;4.30;;;1.50;;
16906;SDS011;8570;52.380;4.654;2023-04-25T06:38:27;4.60;;;2.20;;
16906;SDS011;8570;52.380;4.654;2023-04-25T06:43:30;6.23;;;1.60;;
16906;SDS011;8570;52.380;4.654;2023-04-25T06:48:33;7.37;;;1.57;;
16906;SDS011;8570;52.380;4.654;2023-04-25T06:53:35;7.13;;;1.80;;
16906;SDS011;8570;52.380;4.654;2023-04-25T06:58:40;9.60;;;2.00;;
16906;SDS011;8570;52.380;4.654;2023-04-25T07:03:42;5.57;;;2.30;;
16906;SDS011;8570;52.380;4.654;2023-04-25T07:08:44;10.83;;;2.07;;
16906;SDS011;8570;52.380;4.654;2023-04-25T07:13:47;10.43;;;1.80;;
16906;SDS011;8570;52.380;4.654;2023-04-25T07:18:49;10.43;;;2.10;;
16906;SDS011;8570;52.380;4.654;2023-04-25T07:23:51;10.57;;;2.13;;
16906;SDS011;8570;52.380;4.654;2023-04-25T07:28:54;10.13;;;2.17;;
16906;SDS011;8570;52.380;4.654;2023-04-25T07:33:56;10.07;;;2.23;;
16906;SDS011;8570;52.380;4.654;2023-04-25T07:38:58;12.03;;;1.80;;
16906;SDS011;8570;52.380;4.654;2023-04-25T07:44:01;14.43;;;2.17;;
16906;SDS011;8570;52.380;4.654;2023-04-25T07:49:03;11.53;;;2.33;;
16906;SDS011;8570;52.380;4.654;2023-04-25T07:54:05;9.17;;;2.33;;
16906;SDS011;8570;52.380;4.654;2023-04-25T07:59:08;12.77;;;2.23;;
16906;SDS011;8570;52.380;4.654;2023-04-25T08:04:10;11.13;;;2.20;;
16906;SDS011;8570;52.380;4.654;2023-04-25T08:09:12;8.83;;;1.70;;
16906;SDS011;8570;52.380;4.654;2023-04-25T08:14:17;12.70;;;2.43;;
16906;SDS011;8570;52.380;4.654;2023-04-25T08:19:18;8.33;;;2.03;;
16906;SDS011;8570;52.380;4.654;2023-04-25T08:24:20;8.33;;;1.60;;
16906;SDS011;8570;52.380;4.654;2023-04-25T08:29:24;6.73;;;1.93;;
16906;SDS011;8570;52.380;4.654;2023-04-25T08:34:26;7.57;;;2.17;;
16906;SDS011;8570;52.380;4.654;2023-04-25T08:39:27;3.40;;;0.90;;
16906;SDS011;8570;52.380;4.654;2023-04-25T08:44:31;2.70;;;1.13;;
16906;SDS011;8570;52.380;4.654;2023-04-25T08:49:35;6.70;;;0.93;;
16906;SDS011;8570;52.380;4.654;2023-04-25T08:54:37;2.90;;;1.20;;
16906;SDS011;8570;52.380;4.654;2023-04-25T08:59:45;5.13;;;1.60;;
16906;SDS011;8570;52.380;4.654;2023-04-25T09:04:48;5.93;;;1.63;;
16906;SDS011;8570;52.380;4.654;2023-04-25T09:09:50;9.57;;;1.67;;
16906;SDS011;8570;52.380;4.654;2023-04-25T09:15:04;5.47;;;1.63;;
16906;SDS011;8570;52.380;4.654;2023-04-25T09:20:07;19.13;;;1.97;;
16906;SDS011;8570;52.380;4.654;2023-04-25T09:25:11;9.17;;;2.27;;
16906;SDS011;8570;52.380;4.654;2023-04-25T09:30:16;5.70;;;1.70;;
16906;SDS011;8570;52.380;4.654;2023-04-25T09:35:23;4.55;;;1.60;;
16906;SDS011;8570;52.380;4.654;2023-04-25T09:40:25;9.82;;;1.75;;
16906;SDS011;8570;52.380;4.654;2023-04-25T09:45:30;11.95;;;1.83;;
16906;SDS011;8570;52.380;4.654;2023-04-25T09:50:32;4.28;;;1.40;;
16906;SDS011;8570;52.380;4.654;2023-04-25T09:55:34;8.50;;;1.35;;
16906;SDS011;8570;52.380;4.654;2023-04-25T10:00:38;4.97;;;1.45;;
16906;SDS011;8570;52.380;4.654;2023-04-25T10:05:41;3.97;;;1.38;;
16906;SDS011;8570;52.380;4.654;2023-04-25T10:10:44;3.40;;;1.40;;
16906;SDS011;8570;52.380;4.654;2023-04-25T10:15:49;7.10;;;2.20;;
16906;SDS011;8570;52.380;4.654;2023-04-25T10:20:53;7.35;;;1.70;;
16906;SDS011;8570;52.380;4.654;2023-04-25T10:25:55;5.43;;;1.40;;
16906;SDS011;8570;52.380;4.654;2023-04-25T10:31:00;6.53;;;2.00;;
16906;SDS011;8570;52.380;4.654;2023-04-25T10:36:09;9.90;;;2.00;;
16906;SDS011;8570;52.380;4.654;2023-04-25T10:41:13;8.27;;;2.45;;
16906;SDS011;8570;52.380;4.654;2023-04-25T10:46:17;9.48;;;3.53;;
16906;SDS011;8570;52.380;4.654;2023-04-25T10:51:21;4.32;;;1.60;;
16906;SDS011;8570;52.380;4.654;2023-04-25T10:56:25;7.97;;;1.92;;
16906;SDS011;8570;52.380;4.654;2023-04-25T11:01:29;11.23;;;2.22;;
16906;SDS011;8570;52.380;4.654;2023-04-25T11:06:42;4.20;;;1.75;;
16906;SDS011;8570;52.380;4.654;2023-04-25T11:12:01;6.55;;;1.45;;
16906;SDS011;8570;52.380;4.654;2023-04-25T11:17:05;8.45;;;1.83;;
16906;SDS011;8570;52.380;4.654;2023-04-25T11:22:06;8.90;;;2.25;;
16906;SDS011;8570;52.380;4.654;2023-04-25T11:27:08;10.10;;;1.88;;
16906;SDS011;8570;52.380;4.654;2023-04-25T11:32:12;6.10;;;1.60;;
16906;SDS011;8570;52.380;4.654;2023-04-25T11:37:14;4.82;;;1.40;;
16906;SDS011;8570;52.380;4.654;2023-04-25T11:42:16;4.40;;;1.30;;
16906;SDS011;8570;52.380;4.654;2023-04-25T11:47:21;5.00;;;1.85;;
16906;SDS011;8570;52.380;4.654;2023-04-25T11:52:36;6.05;;;1.65;;
16906;SDS011;8570;52.380;4.654;2023-04-25T11:57:42;4.15;;;1.23;;
16906;SDS011;8570;52.380;4.654;2023-04-25T12:02:47;5.35;;;1.77;;
16906;SDS011;8570;52.380;4.654;2023-04-25T12:07:52;5.55;;;1.67;;
16906;SDS011;8570;52.380;4.654;2023-04-25T12:12:53;5.05;;;1.67;;
16906;SDS011;8570;52.380;4.654;2023-04-25T12:17:57;4.15;;;1.50;;
16906;SDS011;8570;52.380;4.654;2023-04-25T12:22:59;8.35;;;1.67;;
16906;SDS011;8570;52.380;4.654;2023-04-25T12:28:11;7.60;;;1.80;;
16906;SDS011;8570;52.380;4.654;2023-04-25T12:33:15;8.32;;;1.90;;
16906;SDS011;8570;52.380;4.654;2023-04-25T12:38:21;9.73;;;1.67;;
16906;SDS011;8570;52.380;4.654;2023-04-25T12:43:23;7.93;;;1.70;;
16906;SDS011;8570;52.380;4.654;2023-04-25T12:48:27;6.15;;;1.58;;
16906;SDS011;8570;52.380;4.654;2023-04-25T12:53:29;5.75;;;1.80;;
16906;SDS011;8570;52.380;4.654;2023-04-25T12:58:31;10.48;;;1.95;;
16906;SDS011;8570;52.380;4.654;2023-04-25T13:03:35;7.38;;;2.10;;
16906;SDS011;8570;52.380;4.654;2023-04-25T13:08:37;7.40;;;1.60;;
16906;SDS011;8570;52.380;4.654;2023-04-25T13:13:39;8.52;;;2.05;;
16906;SDS011;8570;52.380;4.654;2023-04-25T13:18:43;10.23;;;1.90;;
16906;SDS011;8570;52.380;4.654;2023-04-25T13:23:45;5.10;;;1.33;;
16906;SDS011;8570;52.380;4.654;2023-04-25T13:28:47;4.20;;;1.40;;
16906;SDS011;8570;52.380;4.654;2023-04-25T13:33:50;4.50;;;1.45;;
16906;SDS011;8570;52.380;4.654;2023-04-25T13:38:53;9.48;;;1.77;;
16906;SDS011;8570;52.380;4.654;2023-04-25T13:43:55;8.40;;;1.80;;
16906;SDS011;8570;52.380;4.654;2023-04-25T13:48:58;8.63;;;2.22;;
16906;SDS011;8570;52.380;4.654;2023-04-25T13:54:01;7.60;;;1.50;;
16906;SDS011;8570;52.380;4.654;2023-04-25T13:59:03;4.55;;;1.90;;
16906;SDS011;8570;52.380;4.654;2023-04-25T14:04:06;7.90;;;2.10;;
16906;SDS011;8570;52.380;4.654;2023-04-25T14:09:09;8.07;;;1.92;;
16906;SDS011;8570;52.380;4.654;2023-04-25T14:14:13;2.85;;;1.52;;
16906;SDS011;8570;52.380;4.654;2023-04-25T14:19:17;7.00;;;1.73;;
16906;SDS011;8570;52.380;4.654;2023-04-25T14:24:20;6.35;;;2.03;;
16906;SDS011;8570;52.380;4.654;2023-04-25T14:29:22;8.25;;;1.80;;
16906;SDS011;8570;52.380;4.654;2023-04-25T14:34:25;5.72;;;1.77;;
16906;SDS011;8570;52.380;4.654;2023-04-25T14:39:28;1.83;;;0.98;;
16906;SDS011;8570;52.380;4.654;2023-04-25T14:44:30;3.00;;;1.65;;
16906;SDS011;8570;52.380;4.654;2023-04-25T14:49:33;6.90;;;1.42;;
16906;SDS011;8570;52.380;4.654;2023-04-25T14:54:35;2.63;;;1.20;;
16906;SDS011;8570;52.380;4.654;2023-04-25T14:59:38;6.05;;;1.55;;
16906;SDS011;8570;52.380;4.654;2023-04-25T15:04:41;5.93;;;1.67;;
16906;SDS011;8570;52.380;4.654;2023-04-25T15:09:43;5.43;;;1.58;;
16906;SDS011;8570;52.380;4.654;2023-04-25T15:14:45;5.88;;;1.27;;
16906;SDS011;8570;52.380;4.654;2023-04-25T15:19:49;9.23;;;1.88;;
16906;SDS011;8570;52.380;4.654;2023-04-25T15:24:51;6.13;;;1.45;;
16906;SDS011;8570;52.380;4.654;2023-04-25T15:29:54;4.57;;;1.60;;
16906;SDS011;8570;52.380;4.654;2023-04-25T15:34:58;10.18;;;1.95;;
16906;SDS011;8570;52.380;4.654;2023-04-25T15:40:00;10.07;;;2.38;;
16906;SDS011;8570;52.380;4.654;2023-04-25T15:45:06;5.45;;;1.45;;
16906;SDS011;8570;52.380;4.654;2023-04-25T15:50:11;9.25;;;1.77;;
16906;SDS011;8570;52.380;4.654;2023-04-25T15:55:14;8.55;;;1.70;;
16906;SDS011;8570;52.380;4.654;2023-04-25T16:00:17;8.35;;;1.98;;
16906;SDS011;8570;52.380;4.654;2023-04-25T16:05:22;11.88;;;1.80;;
16906;SDS011;8570;52.380;4.654;2023-04-25T16:10:24;11.20;;;3.63;;
16906;SDS011;8570;52.380;4.654;2023-04-25T16:15:27;10.63;;;3.60;;
16906;SDS011;8570;52.380;4.654;2023-04-25T16:20:30;5.68;;;2.00;;
16906;SDS011;8570;52.380;4.654;2023-04-25T16:25:32;8.23;;;2.17;;
16906;SDS011;8570;52.380;4.654;2023-04-25T16:30:34;11.68;;;2.90;;
16906;SDS011;8570;52.380;4.654;2023-04-25T16:35:37;9.85;;;2.75;;
16906;SDS011;8570;52.380;4.654;2023-04-25T16:40:39;6.93;;;1.90;;
16906;SDS011;8570;52.380;4.654;2023-04-25T16:45:40;7.15;;;2.45;;
16906;SDS011;8570;52.380;4.654;2023-04-25T16:50:44;7.45;;;2.17;;
16906;SDS011;8570;52.380;4.654;2023-04-25T16:55:46;11.43;;;2.95;;
16906;SDS011;8570;52.380;4.654;2023-04-25T17:00:47;10.30;;;2.42;;
16906;SDS011;8570;52.380;4.654;2023-04-25T17:05:52;7.38;;;2.38;;
16906;SDS011;8570;52.380;4.654;2023-04-25T17:10:55;9.35;;;2.53;;
16906;SDS011;8570;52.380;4.654;2023-04-25T17:15:58;10.02;;;2.33;;
16906;SDS011;8570;52.380;4.654;2023-04-25T17:21:02;7.47;;;1.90;;
16906;SDS011;8570;52.380;4.654;2023-04-25T17:26:05;10.55;;;3.35;;
16906;SDS011;8570;52.380;4.654;2023-04-25T17:31:06;4.25;;;2.03;;
16906;SDS011;8570;52.380;4.654;2023-04-25T17:36:10;10.03;;;2.37;;
16906;SDS011;8570;52.380;4.654;2023-04-25T17:41:12;6.00;;;2.10;;
16906;SDS011;8570;52.380;4.654;2023-04-25T17:46:14;7.60;;;2.20;;
16906;SDS011;8570;52.380;4.654;2023-04-25T17:51:17;10.67;;;2.73;;
16906;SDS011;8570;52.380;4.654;2023-04-25T17:56:19;10.07;;;2.40;;
16906;SDS011;8570;52.380;4.654;2023-04-25T18:01:21;7.63;;;2.50;;
16906;SDS011;8570;52.380;4.654;2023-04-25T18:06:28;7.83;;;2.37;;
16906;SDS011;8570;52.380;4.654;2023-04-25T18:11:31;13.57;;;3.27;;
16906;SDS011;8570;52.380;4.654;2023-04-25T18:16:34;7.23;;;2.40;;
16906;SDS011;8570;52.380;4.654;2023-04-25T18:21:37;11.57;;;2.60;;
16906;SDS011;8570;52.380;4.654;2023-04-25T18:26:40;11.10;;;2.50;;
16906;SDS011;8570;52.380;4.654;2023-04-25T18:31:42;9.50;;;3.00;;
16906;SDS011;8570;52.380;4.654;2023-04-25T18:36:45;8.57;;;2.87;;
16906;SDS011;8570;52.380;4.654;2023-04-25T18:41:47;7.37;;;3.07;;
16906;SDS011;8570;52.380;4.654;2023-04-25T18:46:49;11.03;;;3.37;;
16906;SDS011;8570;52.380;4.654;2023-04-25T18:51:53;7.17;;;2.90;;
16906;SDS011;8570;52.380;4.654;2023-04-25T18:56:56;10.03;;;3.23;;
16906;SDS011;8570;52.380;4.654;2023-04-25T19:02:00;13.20;;;3.30;;
16906;SDS011;8570;52.380;4.654;2023-04-25T19:07:04;8.80;;;3.20;;
16906;SDS011;8570;52.380;4.654;2023-04-25T19:12:06;13.37;;;3.23;;
16906;SDS011;8570;52.380;4.654;2023-04-25T19:17:08;11.53;;;3.57;;
16906;SDS011;8570;52.380;4.654;2023-04-25T19:22:13;12.30;;;3.90;;
16906;SDS011;8570;52.380;4.654;2023-04-25T19:27:15;9.63;;;3.40;;
16906;SDS011;8570;52.380;4.654;2023-04-25T19:32:17;17.03;;;4.43;;
16906;SDS011;8570;52.380;4.654;2023-04-25T19:37:20;12.67;;;2.93;;
16906;SDS011;8570;52.380;4.654;2023-04-25T19:42:22;9.40;;;3.07;;
16906;SDS011;8570;52.380;4.654;2023-04-25T19:47:25;15.43;;;3.77;;
16906;SDS011;8570;52.380;4.654;2023-04-25T19:52:29;7.00;;;2.70;;
16906;SDS011;8570;52.380;4.654;2023-04-25T19:57:33;14.03;;;3.10;;
16906;SDS011;8570;52.380;4.654;2023-04-25T20:02:36;9.73;;;3.00;;
16906;SDS011;8570;52.380;4.654;2023-04-25T20:07:41;11.57;;;2.97;;
16906;SDS011;8570;52.380;4.654;2023-04-25T20:12:43;12.13;;;2.50;;
16906;SDS011;8570;52.380;4.654;2023-04-25T20:17:45;12.73;;;2.97;;
16906;SDS011;8570;52.380;4.654;2023-04-25T20:22:49;12.87;;;3.30;;
16906;SDS011;8570;52.380;4.654;2023-04-25T20:27:51;10.53;;;2.80;;
16906;SDS011;8570;52.380;4.654;2023-04-25T20:32:53;9.13;;;2.60;;
16906;SDS011;8570;52.380;4.654;2023-04-25T20:37:57;9.07;;;2.77;;
16906;SDS011;8570;52.380;4.654;2023-04-25T20:42:59;7.63;;;2.67;;
16906;SDS011;8570;52.380;4.654;2023-04-25T20:48:04;8.53;;;2.73;;
16906;SDS011;8570;52.380;4.654;2023-04-25T20:53:08;8.77;;;2.50;;
16906;SDS011;8570;52.380;4.654;2023-04-25T20:58:11;8.10;;;2.77;;
16906;SDS011;8570;52.380;4.654;2023-04-25T21:03:14;11.03;;;3.00;;
16906;SDS011;8570;52.380;4.654;2023-04-25T21:08:17;9.90;;;2.30;;
16906;SDS011;8570;52.380;4.654;2023-04-25T21:13:19;6.10;;;1.77;;
16906;SDS011;8570;52.380;4.654;2023-04-25T21:18:21;10.97;;;2.57;;
16906;SDS011;8570;52.380;4.654;2023-04-25T21:23:25;5.30;;;1.83;;
16906;SDS011;8570;52.380;4.654;2023-04-25T21:28:26;8.17;;;2.10;;
16906;SDS011;8570;52.380;4.654;2023-04-25T21:33:29;6.60;;;2.47;;
16906;SDS011;8570;52.380;4.654;2023-04-25T21:38:32;5.43;;;2.07;;
16906;SDS011;8570;52.380;4.654;2023-04-25T21:43:34;8.07;;;1.90;;
16906;SDS011;8570;52.380;4.654;2023-04-25T21:48:40;9.60;;;3.00;;
16906;SDS011;8570;52.380;4.654;2023-04-25T21:53:43;7.63;;;3.10;;
16906;SDS011;8570;52.380;4.654;2023-04-25T21:58:45;4.40;;;1.77;;
16906;SDS011;8570;52.380;4.654;2023-04-25T22:03:47;8.77;;;2.93;;
16906;SDS011;8570;52.380;4.654;2023-04-25T22:08:51;6.47;;;2.10;;
16906;SDS011;8570;52.380;4.654;2023-04-25T22:13:53;7.53;;;2.10;;
16906;SDS011;8570;52.380;4.654;2023-04-25T22:18:55;4.53;;;1.80;;
16906;SDS011;8570;52.380;4.654;2023-04-25T22:23:59;8.13;;;1.97;;
16906;SDS011;8570;52.380;4.654;2023-04-25T22:29:00;7.07;;;2.00;;
16906;SDS011;8570;52.380;4.654;2023-04-25T22:34:02;9.50;;;2.23;;
16906;SDS011;8570;52.380;4.654;2023-04-25T22:39:06;8.20;;;2.30;;
16906;SDS011;8570;52.380;4.654;2023-04-25T22:44:08;7.03;;;2.10;;
16906;SDS011;8570;52.380;4.654;2023-04-25T22:49:11;5.43;;;1.93;;
16906;SDS011;8570;52.380;4.654;2023-04-25T22:54:14;8.10;;;3.20;;
16906;SDS011;8570;52.380;4.654;2023-04-25T22:59:16;6.23;;;2.00;;
16906;SDS011;8570;52.380;4.654;2023-04-25T23:04:19;3.70;;;1.77;;
16906;SDS011;8570;52.380;4.654;2023-04-25T23:09:22;6.90;;;2.20;;
16906;SDS011;8570;52.380;4.654;2023-04-25T23:14:24;9.50;;;2.50;;
16906;SDS011;8570;52.380;4.654;2023-04-25T23:19:26;6.57;;;1.80;;
16906;SDS011;8570;52.380;4.654;2023-04-25T23:24:30;11.27;;;2.03;;
16906;SDS011;8570;52.380;4.654;2023-04-25T23:29:31;3.27;;;1.60;;
16906;SDS011;8570;52.380;4.654;2023-04-25T23:34:33;6.90;;;1.97;;
16906;SDS011;8570;52.380;4.654;2023-04-25T23:39:37;10.33;;;3.00;;
16906;SDS011;8570;52.380;4.654;2023-04-25T23:44:39;9.27;;;2.37;;
16906;SDS011;8570;52.380;4.654;2023-04-25T23:49:41;5.37;;;1.70;;
16906;SDS011;8570;52.380;4.654;2023-04-25T23:54:45;5.50;;;1.70;;
16906;SDS011;8570;52.380;4.654;2023-04-25T23:59:47;5.33;;;1.87;;
